Watauga, Tennessee
Current Conditions -  °F | °C
As of 8:15 AM on Sunday 21 Dec 2014 (Local Time) from K0A9 Reporting Station
Haze Haze  
Wind Chill: 36°   Ceiling: 3800
Heat Index: 36°   Visibility: 4mi
Dew Point: 36°   Wind: 0mph
Humidity: 100%   Direction: NA
Pressure: 30.23"   Gusts: NA
Location:  36.37°N, 82.3°W
Report Text: K0A9 211315Z AUTO 00000KT 4SM BR OVC038 02/02 A3023 RMK
Loading
Personal Weather Stations






























Interactive Weather Map New forecast layout! Learn more

10-Day Weather Forecast

Advertisements
Track Severe Weather on mobile